Time;durP1;ratioP1;P1;durP2;ratioP2;P2;SDS_P1;SDS_P2;PMS_P1;PMS_P2;Temp;Humidity;BMP_temperature;BMP_pressure;BME280_temperature;BME280_humidity;BME280_pressure;Samples;Min_cycle;Max_cycle;Signal;HPM_P1;HPM_P2
2022/07/12 00:00:57;;;;;;;5.17;4.73;;;14.60;99.90;;;;;;5052714;28;20471;-60
2022/07/12 00:03:25;;;;;;;5.97;4.57;;;14.60;99.90;;;;;;5052617;28;20452;-61
2022/07/12 00:05:52;;;;;;;6.20;5.60;;;14.70;99.90;;;;;;5052685;28;20441;-61
2022/07/12 00:08:19;;;;;;;7.00;5.40;;;14.70;99.90;;;;;;5052645;28;20935;-60
2022/07/12 00:10:46;;;;;;;6.87;5.73;;;14.70;99.90;;;;;;5052713;28;20959;-59
2022/07/12 00:13:15;;;;;;;7.77;5.63;;;14.80;99.90;;;;;;5052719;28;20447;-60
2022/07/12 00:15:42;;;;;;;7.87;6.00;;;14.80;99.90;;;;;;5052850;28;20498;-59
2022/07/12 00:18:11;;;;;;;6.83;5.27;;;14.80;99.90;;;;;;5052799;28;20539;-59
2022/07/12 00:20:38;;;;;;;6.83;5.67;;;14.90;99.90;;;;;;5052494;28;20464;-60
2022/07/12 00:23:06;;;;;;;6.33;5.50;;;14.90;99.90;;;;;;5052820;28;20505;-60
2022/07/12 00:25:33;;;;;;;6.13;5.27;;;14.90;99.90;;;;;;5054830;28;20872;-59
2022/07/12 00:28:00;;;;;;;6.00;4.80;;;15.00;99.90;;;;;;5056874;28;20457;-59
2022/07/12 00:30:28;;;;;;;5.20;4.60;;;15.00;99.90;;;;;;5056651;28;20471;-61
2022/07/12 00:32:55;;;;;;;5.73;4.80;;;15.00;99.90;;;;;;5057263;28;20506;-59
2022/07/12 00:35:24;;;;;;;8.20;5.30;;;15.10;99.90;;;;;;5056815;28;20567;-61
2022/07/12 00:37:51;;;;;;;6.83;5.37;;;15.10;99.90;;;;;;5057038;28;20447;-59
2022/07/12 00:40:18;;;;;;;5.63;4.50;;;15.10;99.90;;;;;;5056445;28;20995;-59
2022/07/12 00:42:46;;;;;;;5.40;4.83;;;15.10;99.90;;;;;;5056549;28;20509;-60
2022/07/12 00:45:13;;;;;;;5.40;4.90;;;15.10;99.90;;;;;;5056337;28;20479;-60
2022/07/12 00:47:43;;;;;;;5.03;4.23;;;15.20;99.90;;;;;;5056469;28;20451;-60
2022/07/12 00:50:13;;;;;;;4.80;4.30;;;15.20;99.90;;;;;;5055964;28;20467;-60
2022/07/12 00:52:43;;;;;;;5.10;4.50;;;15.20;99.90;;;;;;5056134;28;20458;-59
2022/07/12 00:55:12;;;;;;;8.00;4.40;;;15.30;99.90;;;;;;5056369;28;20483;-60
2022/07/12 00:57:43;;;;;;;5.10;4.60;;;15.30;99.90;;;;;;5056472;28;20948;-59
2022/07/12 01:00:12;;;;;;;4.67;4.03;;;15.30;99.90;;;;;;5056873;28;20895;-60
2022/07/12 01:02:40;;;;;;;4.60;4.00;;;15.30;99.90;;;;;;5056492;28;20444;-59
2022/07/12 01:05:08;;;;;;;5.40;3.97;;;15.30;99.90;;;;;;5055964;28;20485;-60
2022/07/12 01:07:37;;;;;;;4.50;3.60;;;15.40;99.90;;;;;;5056508;28;20479;-59
2022/07/12 01:10:07;;;;;;;3.93;3.53;;;15.40;99.90;;;;;;5055582;28;20543;-59
2022/07/12 01:12:34;;;;;;;5.50;3.80;;;15.40;99.90;;;;;;5056974;28;20515;-61
2022/07/12 01:15:05;;;;;;;3.87;3.30;;;15.40;99.90;;;;;;5055961;28;20476;-59
2022/07/12 01:17:33;;;;;;;4.30;3.87;;;15.50;99.90;;;;;;5056044;28;20464;-60
2022/07/12 01:20:01;;;;;;;5.30;4.40;;;15.50;99.90;;;;;;5043790;28;21001;-60
2022/07/12 01:22:32;;;;;;;4.73;4.17;;;15.50;99.90;;;;;;5056224;28;20440;-60
2022/07/12 01:25:02;;;;;;;4.10;3.43;;;15.50;99.90;;;;;;5055932;28;20788;-59
2022/07/12 01:27:30;;;;;;;5.73;4.27;;;15.50;99.90;;;;;;5055446;28;20448;-61
2022/07/12 01:29:57;;;;;;;5.37;4.20;;;15.50;99.90;;;;;;5055055;28;20533;-60
2022/07/12 01:32:25;;;;;;;4.23;3.83;;;15.50;99.90;;;;;;5055795;28;20852;-61
2022/07/12 01:34:54;;;;;;;6.03;4.53;;;15.40;99.90;;;;;;5055378;28;20471;-60
2022/07/12 01:37:22;;;;;;;4.50;4.10;;;15.50;99.90;;;;;;5055162;28;20451;-59
2022/07/12 01:39:52;;;;;;;4.40;3.90;;;15.50;99.90;;;;;;5055517;28;20490;-60
2022/07/12 01:42:21;;;;;;;4.20;3.80;;;15.50;99.90;;;;;;5055840;28;20440;-60
2022/07/12 01:44:50;;;;;;;4.93;4.43;;;15.50;99.90;;;;;;5055506;28;20444;-60
2022/07/12 01:47:18;;;;;;;4.50;4.10;;;15.50;99.90;;;;;;5054841;28;20450;-60
2022/07/12 01:49:45;;;;;;;4.20;3.80;;;15.60;99.90;;;;;;5055565;28;20472;-59
2022/07/12 01:52:13;;;;;;;6.57;4.00;;;15.50;99.90;;;;;;5055002;28;20455;-60
2022/07/12 01:54:40;;;;;;;4.83;4.40;;;15.60;99.90;;;;;;5055211;28;21004;-60
2022/07/12 01:57:07;;;;;;;4.03;3.57;;;15.60;99.90;;;;;;5055307;28;20475;-60
2022/07/12 01:59:37;;;;;;;4.40;3.50;;;15.60;99.90;;;;;;5054881;28;20542;-60
2022/07/12 02:02:05;;;;;;;4.40;4.00;;;15.60;99.90;;;;;;5055542;28;20510;-59
2022/07/12 02:04:32;;;;;;;6.40;4.47;;;15.60;99.90;;;;;;5055659;28;20444;-61
2022/07/12 02:07:00;;;;;;;3.67;3.30;;;15.60;99.90;;;;;;5055259;28;20441;-60
2022/07/12 02:09:28;;;;;;;5.80;3.90;;;15.60;99.90;;;;;;5055298;28;20500;-60
2022/07/12 02:11:55;;;;;;;4.40;4.00;;;15.60;99.90;;;;;;5055473;28;20447;-61
2022/07/12 02:14:23;;;;;;;4.67;4.07;;;15.60;99.90;;;;;;5055058;28;20444;-59
2022/07/12 02:16:52;;;;;;;4.43;4.03;;;15.60;99.90;;;;;;5055062;28;20506;-60
2022/07/12 02:19:19;;;;;;;4.13;3.60;;;15.60;99.90;;;;;;5054696;28;20517;-61
2022/07/12 02:21:46;;;;;;;6.10;4.30;;;15.60;99.90;;;;;;5055147;28;20440;-60
2022/07/12 02:24:14;;;;;;;4.60;3.80;;;15.60;99.90;;;;;;5054741;28;20493;-60
2022/07/12 02:26:41;;;;;;;5.20;4.27;;;15.60;99.90;;;;;;5054123;28;20498;-60
2022/07/12 02:29:08;;;;;;;5.60;5.10;;;15.60;99.90;;;;;;5054157;28;20468;-60
2022/07/12 02:31:36;;;;;;;4.20;3.80;;;15.60;99.90;;;;;;5054805;28;20867;-59
2022/07/12 02:34:05;;;;;;;5.47;4.53;;;15.60;99.90;;;;;;5054453;28;20472;-60
2022/07/12 02:36:33;;;;;;;6.20;4.00;;;15.60;99.90;;;;;;5054482;28;20519;-61
2022/07/12 02:39:02;;;;;;;4.70;3.97;;;15.60;99.90;;;;;;5054816;28;20519;-59
2022/07/12 02:41:30;;;;;;;5.27;4.43;;;15.50;99.90;;;;;;5053975;28;20885;-60
2022/07/12 02:43:58;;;;;;;4.30;3.83;;;15.50;99.90;;;;;;5054725;28;20450;-59
2022/07/12 02:46:25;;;;;;;5.47;4.17;;;15.50;99.90;;;;;;5054950;28;20865;-60
2022/07/12 02:48:53;;;;;;;4.57;4.17;;;15.60;99.90;;;;;;5053159;28;20959;-61
2022/07/12 02:51:21;;;;;;;4.63;4.23;;;15.60;99.90;;;;;;5054637;28;20480;-61
2022/07/12 02:53:49;;;;;;;4.30;3.90;;;15.60;99.90;;;;;;5054408;28;21018;-61
2022/07/12 02:56:16;;;;;;;4.30;3.90;;;15.60;99.90;;;;;;5054438;28;20476;-61
2022/07/12 02:58:43;;;;;;;4.87;4.17;;;15.60;99.90;;;;;;5054687;28;21033;-61
2022/07/12 03:01:11;;;;;;;6.87;4.07;;;15.60;99.90;;;;;;5054617;28;20471;-61
2022/07/12 03:03:38;;;;;;;4.30;3.90;;;15.60;99.90;;;;;;5054072;28;20444;-61
2022/07/12 03:06:06;;;;;;;5.80;4.00;;;15.60;99.90;;;;;;5054013;28;20448;-61
2022/07/12 03:08:35;;;;;;;4.43;4.03;;;15.60;99.90;;;;;;5054532;28;20541;-60
2022/07/12 03:11:02;;;;;;;4.20;3.80;;;15.60;99.90;;;;;;5053501;28;20951;-60
2022/07/12 03:13:29;;;;;;;3.93;3.53;;;15.60;99.90;;;;;;5053760;28;20919;-60
2022/07/12 03:15:57;;;;;;;4.00;3.70;;;15.60;99.90;;;;;;5053746;28;20479;-60
2022/07/12 03:18:24;;;;;;;4.10;3.50;;;15.60;99.90;;;;;;5053640;28;20523;-60
2022/07/12 03:20:51;;;;;;;3.83;3.43;;;15.60;99.90;;;;;;5053429;28;20499;-60
2022/07/12 03:23:18;;;;;;;5.60;3.57;;;15.60;99.90;;;;;;5053779;28;20923;-59
2022/07/12 03:25:47;;;;;;;3.50;3.20;;;15.60;99.90;;;;;;5053247;28;20517;-61
2022/07/12 03:28:14;;;;;;;4.60;3.60;;;15.60;99.90;;;;;;5053282;28;20474;-61
2022/07/12 03:30:42;;;;;;;4.90;4.00;;;15.60;99.90;;;;;;5053265;28;20511;-60
2022/07/12 03:33:09;;;;;;;4.67;4.07;;;15.60;99.90;;;;;;5053328;28;20448;-60
2022/07/12 03:35:36;;;;;;;7.37;4.50;;;15.60;99.90;;;;;;5053556;28;20995;-59
2022/07/12 03:38:04;;;;;;;4.70;4.30;;;15.60;99.90;;;;;;5054705;28;21024;-60
2022/07/12 03:40:34;;;;;;;4.13;3.73;;;15.60;99.90;;;;;;5053873;28;20558;-60
2022/07/12 03:43:02;;;;;;;4.30;3.90;;;15.60;99.90;;;;;;5052997;28;20821;-58
2022/07/12 03:45:30;;;;;;;4.50;3.77;;;15.60;99.90;;;;;;5053215;28;20523;-59
2022/07/12 03:47:57;;;;;;;4.47;3.87;;;15.60;99.90;;;;;;5053165;28;20815;-60
2022/07/12 03:50:24;;;;;;;5.33;3.93;;;15.60;99.90;;;;;;5053028;28;20464;-58
2022/07/12 03:52:52;;;;;;;4.10;3.70;;;15.60;99.90;;;;;;5053240;28;20810;-60
2022/07/12 03:55:19;;;;;;;4.77;4.03;;;15.70;99.90;;;;;;5052888;28;20471;-62
2022/07/12 03:57:46;;;;;;;4.13;3.63;;;15.70;99.90;;;;;;5053102;28;20518;-60
2022/07/12 04:00:15;;;;;;;4.17;3.50;;;15.60;99.90;;;;;;5052337;28;20518;-59
2022/07/12 04:02:43;;;;;;;3.67;3.30;;;15.70;99.90;;;;;;5052705;28;20483;-59
2022/07/12 04:05:12;;;;;;;3.47;3.17;;;15.70;99.90;;;;;;5052405;28;20453;-59
2022/07/12 04:09:59;;;;;;;5.93;3.30;;;15.70;99.90;;;;;;5089574;27;20565;-61
2022/07/12 04:12:26;;;;;;;4.53;4.13;;;15.70;99.90;;;;;;5090445;28;20873;-60
2022/07/12 04:14:54;;;;;;;4.17;3.77;;;15.70;99.90;;;;;;5089993;28;21012;-61
2022/07/12 04:17:21;;;;;;;2.90;2.70;;;15.70;99.90;;;;;;5088885;28;20545;-61
2022/07/12 04:19:48;;;;;;;3.60;3.30;;;15.80;99.90;;;;;;5087360;28;20463;-61
2022/07/12 04:22:15;;;;;;;3.93;3.33;;;15.80;99.90;;;;;;5070069;28;20478;-60
2022/07/12 04:24:43;;;;;;;3.30;3.00;;;15.80;99.90;;;;;;5070011;28;21023;-60
2022/07/12 04:27:12;;;;;;;3.40;3.10;;;15.80;99.90;;;;;;5089064;28;20454;-61
2022/07/12 04:29:39;;;;;;;2.87;2.63;;;15.80;99.90;;;;;;5072911;28;20506;-60
2022/07/12 04:32:07;;;;;;;3.90;3.40;;;15.90;99.90;;;;;;5070022;28;20487;-59
2022/07/12 04:34:34;;;;;;;4.63;3.10;;;15.90;99.90;;;;;;5085198;22;20498;-62
2022/07/12 04:37:01;;;;;;;3.37;2.90;;;15.90;99.90;;;;;;5069813;28;20509;-61
2022/07/12 04:39:29;;;;;;;3.43;3.13;;;15.90;99.90;;;;;;5070394;28;20447;-62
2022/07/12 04:41:56;;;;;;;3.73;3.40;;;15.90;99.90;;;;;;5070121;28;20459;-61
2022/07/12 04:44:24;;;;;;;4.43;4.03;;;16.00;99.90;;;;;;5075777;28;20492;-61
2022/07/12 04:46:52;;;;;;;3.77;3.40;;;16.00;99.90;;;;;;5090173;28;20450;-62
2022/07/12 04:49:19;;;;;;;4.77;3.87;;;16.00;99.90;;;;;;5090239;28;20508;-63
2022/07/12 04:51:46;;;;;;;4.70;4.30;;;16.00;99.90;;;;;;5089575;28;20446;-61
2022/07/12 04:54:14;;;;;;;4.63;4.03;;;16.00;99.90;;;;;;5089442;28;20470;-62
2022/07/12 04:56:41;;;;;;;5.00;4.30;;;16.00;99.90;;;;;;5089833;28;20533;-62
2022/07/12 04:59:09;;;;;;;4.53;4.07;;;16.10;99.90;;;;;;5089510;28;20492;-62
2022/07/12 05:01:37;;;;;;;4.63;4.23;;;16.10;99.90;;;;;;5089592;28;20492;-62
2022/07/12 05:04:05;;;;;;;5.43;3.90;;;16.10;99.90;;;;;;5089278;28;20463;-62
2022/07/12 05:06:33;;;;;;;6.50;4.40;;;16.20;99.90;;;;;;5089309;28;20447;-61
2022/07/12 05:09:00;;;;;;;5.00;4.50;;;16.20;99.90;;;;;;5089552;28;20486;-62
2022/07/12 05:11:27;;;;;;;4.33;3.93;;;16.20;99.90;;;;;;5089354;28;20442;-62
2022/07/12 05:13:54;;;;;;;4.60;4.17;;;16.30;99.90;;;;;;5089126;28;20860;-61
2022/07/12 05:16:22;;;;;;;5.13;4.50;;;16.40;99.90;;;;;;5091627;28;20879;-62
2022/07/12 05:18:51;;;;;;;4.90;4.37;;;16.40;99.90;;;;;;5089716;28;20542;-62
2022/07/12 05:21:19;;;;;;;5.10;4.60;;;16.50;99.90;;;;;;5076758;28;20470;-61
2022/07/12 05:23:46;;;;;;;5.30;4.60;;;16.50;99.90;;;;;;5076003;28;20595;-60
2022/07/12 05:26:13;;;;;;;4.10;3.70;;;16.60;99.90;;;;;;5075495;28;20443;-61
2022/07/12 05:28:40;;;;;;;4.70;4.30;;;16.60;99.90;;;;;;5076236;28;20784;-61
2022/07/12 05:31:11;;;;;;;5.60;3.90;;;16.70;99.90;;;;;;5076013;28;20502;-62
2022/07/12 05:33:38;;;;;;;4.47;3.90;;;16.70;99.90;;;;;;5076222;28;20497;-61
2022/07/12 05:36:07;;;;;;;4.93;3.97;;;16.80;99.90;;;;;;5075635;28;20494;-61
2022/07/12 05:38:34;;;;;;;4.60;4.20;;;16.90;99.90;;;;;;5075765;28;20494;-61
2022/07/12 05:41:01;;;;;;;4.77;4.37;;;17.00;99.90;;;;;;5075938;28;20546;-61
2022/07/12 05:43:29;;;;;;;4.10;3.63;;;17.00;99.90;;;;;;5075794;28;20451;-61
2022/07/12 05:45:57;;;;;;;4.73;4.27;;;17.00;99.90;;;;;;5075360;28;20463;-61
2022/07/12 05:48:24;;;;;;;4.87;4.23;;;17.00;99.90;;;;;;5075420;28;20536;-61
2022/07/12 05:50:51;;;;;;;4.17;3.83;;;17.10;99.90;;;;;;5075329;28;20455;-61
2022/07/12 05:53:22;;;;;;;4.50;4.10;;;17.20;99.90;;;;;;5076332;28;20475;-61
2022/07/12 05:55:49;;;;;;;4.23;3.87;;;17.30;99.90;;;;;;5075706;28;20497;-61
2022/07/12 05:58:16;;;;;;;3.63;3.13;;;17.50;99.90;;;;;;5075533;28;20962;-61
2022/07/12 06:00:44;;;;;;;4.20;3.57;;;17.70;99.90;;;;;;5075308;28;20542;-59
2022/07/12 06:03:11;;;;;;;4.10;3.70;;;17.90;99.60;;;;;;5075235;28;20443;-61
2022/07/12 06:05:38;;;;;;;3.57;3.27;;;18.00;98.80;;;;;;5075013;28;21041;-61
2022/07/12 06:08:06;;;;;;;4.00;3.60;;;18.10;98.40;;;;;;5075019;28;20450;-62
2022/07/12 06:10:35;;;;;;;4.33;3.93;;;18.20;98.00;;;;;;5074890;28;20538;-61
2022/07/12 06:13:03;;;;;;;5.60;3.40;;;18.30;97.80;;;;;;5076092;28;20951;-61
2022/07/12 06:15:30;;;;;;;3.97;3.57;;;18.50;97.30;;;;;;5079515;28;20467;-61
2022/07/12 06:17:57;;;;;;;3.70;3.10;;;18.70;96.90;;;;;;5075328;28;20483;-60
2022/07/12 06:20:25;;;;;;;6.17;3.50;;;18.90;96.30;;;;;;5075275;28;20887;-59
2022/07/12 06:22:53;;;;;;;3.70;3.40;;;19.00;95.60;;;;;;5074969;28;20443;-60
2022/07/12 06:25:20;;;;;;;3.50;3.20;;;19.30;95.00;;;;;;5074577;28;20465;-62
2022/07/12 06:27:49;;;;;;;3.47;3.17;;;19.40;94.00;;;;;;5075590;28;20445;-61
2022/07/12 06:30:17;;;;;;;3.50;3.20;;;19.50;93.40;;;;;;5074506;28;20481;-61
2022/07/12 06:32:46;;;;;;;3.77;3.47;;;19.40;92.70;;;;;;5073953;28;20861;-61
2022/07/12 06:35:14;;;;;;;3.90;3.57;;;19.30;92.80;;;;;;5074232;28;20483;-61
2022/07/12 06:37:42;;;;;;;3.50;3.20;;;19.20;92.80;;;;;;5074232;28;20499;-61
2022/07/12 06:40:10;;;;;;;3.50;3.20;;;19.20;92.90;;;;;;5074212;28;20493;-61
2022/07/12 06:42:37;;;;;;;3.80;3.07;;;19.10;92.60;;;;;;5074172;28;20535;-60
2022/07/12 06:45:07;;;;;;;3.87;3.57;;;19.10;92.50;;;;;;5074266;28;20821;-61
2022/07/12 06:47:35;;;;;;;6.60;3.90;;;19.10;92.50;;;;;;5074896;28;20950;-61
2022/07/12 06:50:02;;;;;;;3.73;3.43;;;19.00;92.30;;;;;;5073945;28;20562;-60
2022/07/12 06:52:30;;;;;;;6.10;3.70;;;19.00;92.40;;;;;;5073984;28;20443;-62
2022/07/12 06:54:57;;;;;;;3.93;3.53;;;19.10;92.10;;;;;;5073633;28;20553;-60
2022/07/12 06:57:26;;;;;;;3.43;3.13;;;19.20;91.80;;;;;;5073682;28;20500;-60
2022/07/12 06:59:54;;;;;;;3.70;3.40;;;19.40;91.20;;;;;;5074069;28;20443;-61
2022/07/12 07:02:23;;;;;;;4.10;3.70;;;19.60;90.80;;;;;;5073969;28;20839;-60
2022/07/12 07:04:50;;;;;;;4.23;3.30;;;19.90;90.00;;;;;;5072960;28;20560;-60
2022/07/12 07:07:17;;;;;;;3.33;3.03;;;19.90;88.50;;;;;;5074039;28;20472;-61
2022/07/12 07:09:45;;;;;;;3.20;2.90;;;19.80;88.10;;;;;;5074193;28;20508;-60
2022/07/12 07:12:12;;;;;;;3.83;3.53;;;19.80;88.10;;;;;;5075339;28;20457;-61
2022/07/12 07:14:39;;;;;;;4.33;3.40;;;19.80;87.70;;;;;;5076226;28;21039;-60
2022/07/12 07:17:07;;;;;;;3.70;3.40;;;19.70;87.50;;;;;;5077594;28;20440;-60
2022/07/12 07:19:38;;;;;;;3.50;3.20;;;19.70;87.80;;;;;;5076835;28;20432;-60
2022/07/12 07:22:05;;;;;;;4.20;3.80;;;19.60;88.20;;;;;;5075965;28;20456;-59
2022/07/12 07:24:32;;;;;;;3.37;3.07;;;19.70;88.40;;;;;;5076127;28;20887;-60
2022/07/12 07:27:00;;;;;;;3.67;3.37;;;19.80;87.80;;;;;;5075871;28;21000;-60
2022/07/12 07:32:12;;;;;;;4.47;3.73;;;19.90;85.40;;;;;;5076026;28;20439;-59
2022/07/12 07:34:41;;;;;;;3.60;3.27;;;19.70;85.20;;;;;;5075389;28;20509;-60
2022/07/12 07:37:09;;;;;;;3.30;2.97;;;19.60;86.00;;;;;;5078019;28;20915;-61
2022/07/12 07:39:36;;;;;;;4.23;3.40;;;19.60;86.50;;;;;;5080399;28;20492;-60
2022/07/12 07:42:04;;;;;;;3.67;3.37;;;19.60;86.10;;;;;;5083167;28;20497;-61
2022/07/12 07:44:32;;;;;;;3.90;3.60;;;19.60;85.70;;;;;;5082771;28;20566;-60
2022/07/12 07:46:59;;;;;;;4.23;3.93;;;19.60;85.70;;;;;;5082624;28;20443;-60
2022/07/12 07:49:26;;;;;;;3.97;3.60;;;19.60;85.50;;;;;;5080494;28;20471;-61
2022/07/12 07:51:55;;;;;;;4.27;3.87;;;19.70;85.30;;;;;;5079021;28;20443;-62
2022/07/12 07:54:22;;;;;;;3.40;3.10;;;19.80;84.50;;;;;;5075944;28;20468;-61
2022/07/12 07:56:49;;;;;;;4.10;3.70;;;19.90;83.70;;;;;;5075285;28;20513;-61
2022/07/12 07:59:17;;;;;;;3.70;3.40;;;19.90;83.00;;;;;;5078918;28;20439;-60
2022/07/12 08:01:45;;;;;;;3.30;3.00;;;20.00;82.20;;;;;;5079927;28;20448;-61
2022/07/12 08:04:12;;;;;;;4.10;3.60;;;20.00;82.10;;;;;;5082108;28;20471;-61
2022/07/12 08:06:40;;;;;;;3.43;3.13;;;20.10;82.00;;;;;;5082403;28;20467;-61
2022/07/12 08:09:09;;;;;;;5.23;3.67;;;20.20;81.20;;;;;;5080492;28;20482;-61
2022/07/12 08:11:36;;;;;;;3.53;3.20;;;20.20;80.70;;;;;;5078764;28;20444;-60
2022/07/12 08:14:04;;;;;;;4.50;3.73;;;20.30;81.00;;;;;;5074870;28;20550;-60
2022/07/12 08:16:31;;;;;;;4.10;3.80;;;20.40;81.40;;;;;;5072583;28;20440;-61
2022/07/12 08:18:59;;;;;;;3.10;2.90;;;20.50;80.70;;;;;;5074096;28;20532;-61
2022/07/12 08:21:26;;;;;;;3.70;3.40;;;20.60;80.10;;;;;;5075540;28;20440;-60
2022/07/12 08:23:54;;;;;;;4.17;3.77;;;20.60;79.90;;;;;;5075440;28;21010;-61
2022/07/12 08:26:23;;;;;;;4.03;3.63;;;20.70;79.60;;;;;;5074978;28;20972;-61
2022/07/12 08:28:50;;;;;;;4.53;3.10;;;20.80;79.00;;;;;;5072995;28;20541;-62
2022/07/12 08:31:17;;;;;;;3.87;3.57;;;20.80;78.80;;;;;;5072760;28;20453;-60
2022/07/12 08:33:45;;;;;;;3.93;3.53;;;20.80;78.70;;;;;;5072504;28;20525;-60
2022/07/12 08:36:12;;;;;;;3.80;3.50;;;20.80;77.70;;;;;;5072508;28;20499;-61
2022/07/12 08:38:41;;;;;;;3.50;3.20;;;20.70;78.20;;;;;;5077304;28;20473;-59
2022/07/12 08:41:10;;;;;;;2.77;2.57;;;20.70;78.00;;;;;;5073131;28;20437;-61
2022/07/12 08:43:39;;;;;;;3.53;3.20;;;20.80;77.90;;;;;;5072270;28;20445;-60
2022/07/12 08:46:07;;;;;;;3.07;2.87;;;21.00;77.60;;;;;;5072217;28;20448;-60
2022/07/12 08:48:35;;;;;;;4.07;3.10;;;21.20;76.30;;;;;;5071900;28;20479;-60
2022/07/12 08:51:03;;;;;;;2.83;2.63;;;21.40;74.90;;;;;;5072323;28;20512;-59
2022/07/12 08:53:31;;;;;;;3.83;3.50;;;21.60;73.60;;;;;;5073203;28;20444;-61
2022/07/12 08:55:58;;;;;;;3.67;3.33;;;21.60;72.50;;;;;;5074514;28;21052;-61
2022/07/12 08:58:26;;;;;;;4.20;3.77;;;21.60;72.40;;;;;;5076215;28;20502;-61
2022/07/12 09:00:54;;;;;;;3.27;3.00;;;21.80;71.70;;;;;;5075988;28;20453;-61
2022/07/12 09:03:22;;;;;;;3.43;3.13;;;21.80;71.00;;;;;;5075960;28;20450;-61
2022/07/12 09:05:52;;;;;;;3.40;3.10;;;21.90;70.70;;;;;;5075531;28;20467;-60
2022/07/12 09:08:20;;;;;;;3.47;3.17;;;22.10;70.30;;;;;;5075608;28;21008;-61
2022/07/12 09:10:59;;;;;;;7.93;3.40;;;22.20;69.40;;;;;;5075496;28;20489;-60
2022/07/12 09:13:51;;;;;;;4.40;4.00;;;22.20;67.80;;;;;;5075435;28;20437;-61
2022/07/12 09:16:21;;;;;;;4.53;3.67;;;22.10;67.70;;;;;;5075774;28;20887;-61
2022/07/12 09:18:49;;;;;;;3.23;3.03;;;22.00;67.50;;;;;;5075862;28;20503;-61
2022/07/12 09:21:26;;;;;;;3.60;3.20;;;22.00;67.80;;;;;;5075299;28;20438;-61
2022/07/12 09:23:55;;;;;;;3.20;2.90;;;22.00;67.70;;;;;;5075040;28;20906;-61
2022/07/12 09:26:23;;;;;;;4.50;2.90;;;22.20;67.60;;;;;;5075490;28;20450;-61
2022/07/12 09:28:51;;;;;;;4.07;3.37;;;22.40;66.80;;;;;;5075351;28;20554;-62
2022/07/12 09:31:20;;;;;;;3.40;3.10;;;22.60;65.40;;;;;;5075535;28;20857;-62
2022/07/12 09:36:59;;;;;;;3.87;3.57;;;22.60;63.20;;;;;;5075106;28;20414;-60
2022/07/12 09:39:26;;;;;;;3.80;3.50;;;22.60;63.10;;;;;;5074527;28;20495;-60
2022/07/12 09:41:56;;;;;;;4.53;3.90;;;22.70;62.50;;;;;;5074640;28;20450;-60
2022/07/12 09:44:25;;;;;;;4.00;3.70;;;22.80;62.40;;;;;;5075078;28;20463;-60
2022/07/12 09:46:54;;;;;;;4.20;3.23;;;23.00;61.70;;;;;;5075164;28;20629;-60
2022/07/12 09:49:22;;;;;;;3.90;3.43;;;23.00;61.50;;;;;;5075141;28;20473;-58
2022/07/12 09:51:54;;;;;;;3.17;2.87;;;23.10;61.40;;;;;;5075027;28;20454;-60
2022/07/12 09:54:27;;;;;;;3.10;2.80;;;23.20;60.60;;;;;;5075660;28;20519;-60
2022/07/12 09:56:58;;;;;;;3.40;2.57;;;23.20;60.10;;;;;;5075929;28;20439;-60
2022/07/12 09:59:29;;;;;;;3.07;2.70;;;23.20;59.80;;;;;;5075424;28;20453;-61
2022/07/12 10:02:03;;;;;;;3.30;3.07;;;23.30;59.10;;;;;;5074969;28;20451;-61
2022/07/12 10:04:31;;;;;;;3.30;3.00;;;23.30;58.00;;;;;;5074400;28;20950;-61
2022/07/12 10:06:59;;;;;;;3.30;3.00;;;23.20;58.10;;;;;;5074771;28;20868;-60
2022/07/12 10:09:27;;;;;;;4.50;2.80;;;23.30;58.10;;;;;;5074702;28;20441;-61
2022/07/12 10:11:56;;;;;;;4.20;3.10;;;23.30;57.50;;;;;;5074379;28;20447;-62
2022/07/12 10:14:24;;;;;;;3.90;3.53;;;23.40;57.20;;;;;;5075319;28;20467;-60
2022/07/12 10:16:53;;;;;;;3.70;3.40;;;23.50;57.00;;;;;;5074578;28;21017;-61
2022/07/12 10:19:27;;;;;;;4.00;3.70;;;23.70;56.70;;;;;;5074309;28;20462;-60
2022/07/12 10:21:56;;;;;;;3.17;2.87;;;23.80;56.50;;;;;;5074361;28;20465;-60
2022/07/12 10:24:55;;;;;;;3.43;2.80;;;23.60;56.30;;;;;;5074713;28;20817;-61
2022/07/12 10:27:32;;;;;;;3.07;2.87;;;23.50;56.10;;;;;;5074694;28;20454;-61
2022/07/12 10:30:20;;;;;;;3.50;3.20;;;23.60;55.60;;;;;;5074173;28;20510;-59
2022/07/12 10:32:49;;;;;;;6.90;2.90;;;23.90;54.90;;;;;;5074432;28;20512;-60
2022/07/12 10:35:22;;;;;;;3.33;3.03;;;24.00;54.50;;;;;;5073837;28;20495;-60
2022/07/12 10:38:16;;;;;;;4.90;3.70;;;24.10;54.30;;;;;;5073655;28;20911;-60
2022/07/12 10:40:44;;;;;;;5.00;4.13;;;24.20;53.80;;;;;;5073583;28;20442;-60
2022/07/12 10:43:21;;;;;;;3.70;3.30;;;24.30;53.80;;;;;;5075473;28;20505;-61
2022/07/12 10:45:49;;;;;;;3.50;3.20;;;24.50;53.80;;;;;;5073518;28;20463;-61
2022/07/12 10:48:24;;;;;;;9.77;3.67;;;24.70;53.50;;;;;;5073539;28;20636;-62
2022/07/12 10:50:57;;;;;;;3.50;3.20;;;24.90;53.10;;;;;;5073574;28;20533;-60
2022/07/12 10:53:30;;;;;;;3.43;3.23;;;25.10;52.30;;;;;;5073935;28;21027;-62
2022/07/12 10:56:16;;;;;;;4.37;4.00;;;25.20;51.60;;;;;;5073934;28;20885;-62
2022/07/12 10:58:45;;;;;;;4.07;3.77;;;25.30;51.10;;;;;;5073656;28;20453;-61
2022/07/12 11:01:14;;;;;;;3.50;3.30;;;25.30;50.30;;;;;;5073275;28;20434;-62
2022/07/12 11:03:43;;;;;;;3.20;3.00;;;25.30;49.80;;;;;;5073622;28;20442;-62
2022/07/12 11:06:14;;;;;;;3.93;3.50;;;25.20;49.30;;;;;;5073068;28;20538;-62
2022/07/12 11:08:56;;;;;;;3.50;3.20;;;25.10;49.00;;;;;;5073519;28;20858;-61
2022/07/12 11:11:25;;;;;;;3.80;3.50;;;25.00;48.80;;;;;;5073176;28;20486;-63
2022/07/12 11:13:53;;;;;;;3.40;3.20;;;25.10;49.00;;;;;;5072805;28;20445;-62
2022/07/12 11:16:20;;;;;;;4.90;3.80;;;25.20;48.90;;;;;;5073386;28;20513;-63
2022/07/12 11:18:48;;;;;;;3.73;3.43;;;25.30;48.80;;;;;;5072421;28;20487;-63
2022/07/12 11:21:17;;;;;;;4.53;3.60;;;25.30;48.90;;;;;;5072793;28;20805;-63
2022/07/12 11:23:45;;;;;;;4.13;3.83;;;25.30;49.20;;;;;;5072964;28;20541;-62
2022/07/12 11:26:13;;;;;;;4.00;3.70;;;25.60;49.10;;;;;;5072597;28;20556;-62
2022/07/12 11:28:42;;;;;;;3.70;3.40;;;25.80;48.40;;;;;;5073132;28;20444;-62
2022/07/12 11:31:11;;;;;;;3.70;3.40;;;25.90;47.40;;;;;;5073266;28;20561;-63
2022/07/12 11:33:40;;;;;;;4.37;3.97;;;26.10;46.50;;;;;;5072327;28;20455;-62
2022/07/12 11:36:09;;;;;;;3.50;3.20;;;26.10;46.20;;;;;;5072587;28;20442;-61
2022/07/12 11:38:39;;;;;;;3.50;3.30;;;26.10;46.20;;;;;;5072609;28;20453;-61
2022/07/12 11:41:08;;;;;;;4.37;3.53;;;26.10;46.50;;;;;;5072741;28;20430;-60
2022/07/12 11:43:37;;;;;;;3.43;3.17;;;26.20;46.10;;;;;;5072540;28;20442;-61
2022/07/12 11:46:05;;;;;;;3.70;3.00;;;26.30;45.30;;;;;;5072804;28;20871;-61
2022/07/12 11:48:33;;;;;;;2.70;2.50;;;26.30;44.80;;;;;;5073026;28;20462;-60
2022/07/12 11:51:03;;;;;;;4.43;2.70;;;26.30;44.60;;;;;;5075547;28;21014;-63
2022/07/12 11:53:32;;;;;;;3.47;2.97;;;26.30;44.00;;;;;;5072446;28;20500;-62
2022/07/12 11:56:02;;;;;;;3.00;2.70;;;26.30;44.00;;;;;;5072617;28;20503;-62
2022/07/12 11:58:32;;;;;;;3.53;3.23;;;26.50;43.80;;;;;;5072204;28;20540;-62
2022/07/12 12:01:00;;;;;;;2.83;2.63;;;26.80;43.30;;;;;;5073166;28;20855;-62
2022/07/12 12:03:27;;;;;;;2.50;2.30;;;27.20;42.60;;;;;;5072683;28;20586;-61
2022/07/12 12:05:56;;;;;;;2.67;2.47;;;27.70;40.90;;;;;;5072700;28;20479;-62
2022/07/12 12:08:24;;;;;;;2.07;1.67;;;28.10;39.90;;;;;;5072281;28;20506;-61
2022/07/12 12:10:57;;;;;;;2.70;2.10;;;28.50;38.90;;;;;;5072177;28;20894;-61
2022/07/12 12:13:27;;;;;;;2.03;1.83;;;28.90;38.00;;;;;;5072811;28;20560;-61
2022/07/12 12:15:55;;;;;;;1.97;1.73;;;29.30;37.40;;;;;;5072981;28;20470;-61
2022/07/12 12:18:30;;;;;;;1.80;1.70;;;29.60;37.00;;;;;;5072718;28;20484;-61
2022/07/12 12:21:02;;;;;;;2.13;2.00;;;30.00;36.70;;;;;;5072519;28;20445;-59
2022/07/12 12:23:30;;;;;;;1.93;1.83;;;30.40;36.40;;;;;;5073092;28;20490;-62
2022/07/12 12:26:15;;;;;;;1.80;1.70;;;30.50;35.80;;;;;;5073049;28;20486;-63
2022/07/12 12:28:45;;;;;;;1.70;1.60;;;30.50;35.70;;;;;;5073813;28;20443;-61
2022/07/12 12:31:13;;;;;;;2.23;1.10;;;30.50;35.20;;;;;;5076272;28;20999;-61
2022/07/12 12:33:41;;;;;;;1.83;1.73;;;30.50;34.50;;;;;;5077344;28;20460;-60
2022/07/12 12:36:22;;;;;;;1.33;1.23;;;30.50;33.90;;;;;;5078055;28;20471;-61
2022/07/12 12:38:51;;;;;;;1.90;1.70;;;30.60;33.20;;;;;;5077373;28;20495;-60
2022/07/12 12:41:22;;;;;;;1.77;1.40;;;30.60;32.80;;;;;;5077422;28;20454;-60
2022/07/12 12:43:58;;;;;;;3.40;1.60;;;30.50;32.90;;;;;;5078091;28;20438;-61
2022/07/12 12:46:46;;;;;;;2.13;2.03;;;30.10;33.50;;;;;;5078775;28;20428;-60
2022/07/12 12:49:14;;;;;;;2.07;1.87;;;29.70;34.30;;;;;;5078988;28;20964;-61
2022/07/12 12:51:55;;;;;;;2.30;2.10;;;29.40;35.10;;;;;;5077131;28;20476;-60
2022/07/12 12:54:36;;;;;;;2.60;2.30;;;28.90;35.50;;;;;;5076377;28;20529;-61
2022/07/12 12:57:03;;;;;;;2.70;2.50;;;28.50;36.20;;;;;;5075812;28;20843;-61
2022/07/12 12:59:33;;;;;;;2.90;2.70;;;28.30;36.90;;;;;;5076179;28;20443;-59
2022/07/12 13:02:00;;;;;;;2.77;2.20;;;28.20;37.40;;;;;;5076761;28;20857;-61
2022/07/12 13:04:30;;;;;;;2.30;2.00;;;28.20;37.30;;;;;;5075943;28;20464;-62